sensor_id;sensor_type;location;lat;lon;timestamp;pressure;altitude;pressure_sealevel;temperature;humidity
71903;BME280;59778;50.310;18.780;2023-07-28T00:06:51;97916.34;;;18.02;62.72
71903;BME280;59778;50.310;18.780;2023-07-28T00:22:12;97916.06;;;17.98;63.84
71903;BME280;59778;50.310;18.780;2023-07-28T00:37:33;97907.13;;;18.13;66.02
71903;BME280;59778;50.310;18.780;2023-07-28T00:52:55;97913.00;;;17.95;70.32
71903;BME280;59778;50.310;18.780;2023-07-28T01:08:24;97890.09;;;17.79;71.40
71903;BME280;59778;50.310;18.780;2023-07-28T01:39:14;97869.78;;;17.80;70.62
71903;BME280;59778;50.310;18.780;2023-07-28T01:54:35;97859.03;;;17.78;70.74
71903;BME280;59778;50.310;18.780;2023-07-28T02:09:56;97834.31;;;17.73;72.03
71903;BME280;59778;50.310;18.780;2023-07-28T02:25:17;97844.13;;;17.64;73.68
71903;BME280;59778;50.310;18.780;2023-07-28T02:40:39;97842.06;;;17.55;74.34
71903;BME280;59778;50.310;18.780;2023-07-28T02:56:00;97836.53;;;17.44;75.27
71903;BME280;59778;50.310;18.780;2023-07-28T03:11:21;97822.44;;;17.36;76.10
71903;BME280;59778;50.310;18.780;2023-07-28T03:26:43;97819.94;;;17.34;75.22
71903;BME280;59778;50.310;18.780;2023-07-28T03:42:04;97819.34;;;17.27;76.76
71903;BME280;59778;50.310;18.780;2023-07-28T03:57:25;97815.47;;;17.23;79.11
71903;BME280;59778;50.310;18.780;2023-07-28T04:12:47;97804.00;;;17.31;79.59
71903;BME280;59778;50.310;18.780;2023-07-28T04:28:08;97785.88;;;17.30;81.16
71903;BME280;59778;50.310;18.780;2023-07-28T04:43:30;97787.53;;;17.31;80.93
71903;BME280;59778;50.310;18.780;2023-07-28T04:58:51;97789.47;;;17.31;84.72
71903;BME280;59778;50.310;18.780;2023-07-28T05:14:12;97786.09;;;16.92;93.45
71903;BME280;59778;50.310;18.780;2023-07-28T05:29:33;97791.94;;;16.52;95.70
71903;BME280;59778;50.310;18.780;2023-07-28T05:44:55;97789.38;;;16.19;100.00
71903;BME280;59778;50.310;18.780;2023-07-28T06:00:16;97786.88;;;16.17;100.00
71903;BME280;59778;50.310;18.780;2023-07-28T06:15:41;97814.28;;;15.95;100.00
71903;BME280;59778;50.310;18.780;2023-07-28T06:31:02;97820.03;;;15.77;100.00
71903;BME280;59778;50.310;18.780;2023-07-28T06:46:24;97824.84;;;15.70;100.00
71903;BME280;59778;50.310;18.780;2023-07-28T07:01:45;97831.31;;;15.81;100.00
71903;BME280;59778;50.310;18.780;2023-07-28T07:17:06;97830.22;;;15.82;100.00
71903;BME280;59778;50.310;18.780;2023-07-28T07:32:28;97843.97;;;16.03;100.00
71903;BME280;59778;50.310;18.780;2023-07-28T07:47:50;97847.88;;;16.51;100.00
71903;BME280;59778;50.310;18.780;2023-07-28T08:03:11;97856.47;;;16.81;100.00
71903;BME280;59778;50.310;18.780;2023-07-28T08:18:34;97853.19;;;17.06;100.00
71903;BME280;59778;50.310;18.780;2023-07-28T08:33:55;97863.63;;;17.36;100.00
71903;BME280;59778;50.310;18.780;2023-07-28T08:49:17;97862.72;;;17.30;100.00
71903;BME280;59778;50.310;18.780;2023-07-28T09:04:38;97853.84;;;17.77;100.00
71903;BME280;59778;50.310;18.780;2023-07-28T09:19:59;97877.13;;;18.11;100.00
71903;BME280;59778;50.310;18.780;2023-07-28T09:35:21;97870.34;;;18.81;100.00
71903;BME280;59778;50.310;18.780;2023-07-28T09:50:43;97873.47;;;19.10;100.00
71903;BME280;59778;50.310;18.780;2023-07-28T10:06:05;97861.66;;;19.24;99.78
71903;BME280;59778;50.310;18.780;2023-07-28T10:21:27;97863.66;;;19.54;96.95
71903;BME280;59778;50.310;18.780;2023-07-28T10:36:57;97900.00;;;20.02;94.68
71903;BME280;59778;50.310;18.780;2023-07-28T10:52:23;97888.31;;;20.65;90.28
71903;BME280;59778;50.310;18.780;2023-07-28T11:07:45;97885.25;;;21.70;85.22
71903;BME280;59778;50.310;18.780;2023-07-28T11:23:06;97884.28;;;22.95;84.69
71903;BME280;59778;50.310;18.780;2023-07-28T11:38:29;97889.53;;;22.44;80.42
71903;BME280;59778;50.310;18.780;2023-07-28T11:53:50;97894.88;;;22.12;80.94
71903;BME280;59778;50.310;18.780;2023-07-28T12:09:12;97889.63;;;22.10;80.21
71903;BME280;59778;50.310;18.780;2023-07-28T12:24:33;97882.31;;;22.95;77.22
71903;BME280;59778;50.310;18.780;2023-07-28T12:39:54;97889.56;;;21.81;81.64
71903;BME280;59778;50.310;18.780;2023-07-28T12:55:16;97894.34;;;23.10;80.95
71903;BME280;59778;50.310;18.780;2023-07-28T13:10:38;97887.72;;;23.99;74.66
71903;BME280;59778;50.310;18.780;2023-07-28T13:25:59;97893.38;;;24.86;70.97
71903;BME280;59778;50.310;18.780;2023-07-28T13:41:20;97894.06;;;24.64;70.18
71903;BME280;59778;50.310;18.780;2023-07-28T13:56:41;97886.69;;;25.01;70.13
71903;BME280;59778;50.310;18.780;2023-07-28T14:12:03;97873.06;;;25.13;67.83
71903;BME280;59778;50.310;18.780;2023-07-28T14:27:25;97860.84;;;24.59;71.61
71903;BME280;59778;50.310;18.780;2023-07-28T14:42:46;97857.16;;;24.91;72.10
71903;BME280;59778;50.310;18.780;2023-07-28T14:58:07;97822.00;;;25.09;70.30
71903;BME280;59778;50.310;18.780;2023-07-28T15:13:28;97840.50;;;26.07;66.07
71903;BME280;59778;50.310;18.780;2023-07-28T15:28:50;97835.16;;;25.66;67.58
71903;BME280;59778;50.310;18.780;2023-07-28T15:44:11;97835.00;;;25.00;69.58
71903;BME280;59778;50.310;18.780;2023-07-28T15:59:32;97849.28;;;23.23;76.74
71903;BME280;59778;50.310;18.780;2023-07-28T16:14:54;97867.66;;;22.47;87.59
71903;BME280;59778;50.310;18.780;2023-07-28T16:30:18;97899.84;;;21.76;95.43
71903;BME280;59778;50.310;18.780;2023-07-28T16:45:39;97906.75;;;21.39;98.94
71903;BME280;59778;50.310;18.780;2023-07-28T17:01:00;97914.34;;;21.13;91.26
71903;BME280;59778;50.310;18.780;2023-07-28T17:16:21;97899.69;;;20.39;91.41
71903;BME280;59778;50.310;18.780;2023-07-28T17:31:43;97929.50;;;20.37;99.34
71903;BME280;59778;50.310;18.780;2023-07-28T17:47:04;97938.84;;;20.20;100.00
71903;BME280;59778;50.310;18.780;2023-07-28T18:02:26;97944.09;;;20.07;100.00
71903;BME280;59778;50.310;18.780;2023-07-28T18:17:47;97955.97;;;19.92;100.00
71903;BME280;59778;50.310;18.780;2023-07-28T18:33:09;97952.34;;;19.71;100.00
71903;BME280;59778;50.310;18.780;2023-07-28T18:48:31;97954.50;;;19.39;100.00
71903;BME280;59778;50.310;18.780;2023-07-28T19:03:52;97960.22;;;19.22;100.00
71903;BME280;59778;50.310;18.780;2023-07-28T19:19:14;97995.56;;;19.46;100.00
71903;BME280;59778;50.310;18.780;2023-07-28T19:34:35;98022.22;;;19.35;100.00
71903;BME280;59778;50.310;18.780;2023-07-28T19:49:57;97998.78;;;19.33;100.00
71903;BME280;59778;50.310;18.780;2023-07-28T20:05:19;98022.72;;;19.22;100.00
71903;BME280;59778;50.310;18.780;2023-07-28T20:20:40;98025.88;;;18.94;100.00
71903;BME280;59778;50.310;18.780;2023-07-28T20:36:01;98028.78;;;19.19;100.00
71903;BME280;59778;50.310;18.780;2023-07-28T20:51:22;98029.03;;;19.17;100.00
71903;BME280;59778;50.310;18.780;2023-07-28T21:06:43;98019.91;;;19.07;100.00
71903;BME280;59778;50.310;18.780;2023-07-28T21:22:05;98028.63;;;18.94;100.00
71903;BME280;59778;50.310;18.780;2023-07-28T21:37:26;98040.94;;;18.81;100.00
71903;BME280;59778;50.310;18.780;2023-07-28T21:52:47;98058.28;;;18.50;100.00
71903;BME280;59778;50.310;18.780;2023-07-28T22:08:11;98088.84;;;17.95;100.00
71903;BME280;59778;50.310;18.780;2023-07-28T22:23:32;98095.88;;;17.80;100.00
71903;BME280;59778;50.310;18.780;2023-07-28T22:38:54;98084.34;;;17.83;100.00
71903;BME280;59778;50.310;18.780;2023-07-28T22:54:15;98085.53;;;17.66;100.00
71903;BME280;59778;50.310;18.780;2023-07-28T23:09:40;98116.03;;;17.48;100.00
71903;BME280;59778;50.310;18.780;2023-07-28T23:25:02;98112.84;;;17.34;100.00
71903;BME280;59778;50.310;18.780;2023-07-28T23:40:23;98107.28;;;17.29;100.00
71903;BME280;59778;50.310;18.780;2023-07-28T23:55:44;98096.66;;;17.16;100.00
